Time,TemperatureF,DewpointF,PressureIn,WindDirection,WindDirectionDegrees,WindSpeedMPH,WindSpeedGustMPH,Humidity,HourlyPrecipIn,Conditions,Clouds,dailyrainin,SolarRadiationWatts/m^2,SoftwareType,DateUTC
2013-03-29 00:23:00,39.0,22.0,-100.00,East,83,0.0,33.0,50,0.00,,,-99.99,0.000000,,2013-03-29 04:23:00,
2013-03-29 00:33:00,39.0,22.0,-100.00,East,83,0.0,33.0,50,0.00,,,-99.99,0.000000,,2013-03-29 04:33:00,
2013-03-29 00:43:00,39.0,22.0,-100.00,East,83,0.0,33.0,50,0.00,,,-99.99,0.000000,,2013-03-29 04:43:00,
2013-03-29 00:52:00,37.0,23.0,-100.00,NE,52,0.0,6.0,56,0.00,,,-99.99,0.000000,,2013-03-29 04:52:00,
2013-03-29 01:13:00,37.0,23.0,-100.00,NE,52,0.0,6.0,56,0.00,,,-99.99,0.000000,,2013-03-29 05:13:00,
2013-03-29 01:23:00,37.0,23.0,-100.00,NE,52,0.0,6.0,56,0.00,,,-99.99,0.000000,,2013-03-29 05:23:00,
2013-03-29 01:33:00,37.0,23.0,-100.00,NE,52,0.0,6.0,56,0.00,,,-99.99,0.000000,,2013-03-29 05:33:00,
2013-03-29 01:43:00,37.0,23.0,-100.00,NE,52,0.0,6.0,56,0.00,,,-99.99,0.000000,,2013-03-29 05:43:00,
2013-03-29 01:52:00,32.0,22.0,-100.00,NE,38,0.0,3.0,67,0.00,,,-99.99,0.000000,,2013-03-29 05:52:00,
2013-03-29 02:23:00,32.0,22.0,-100.00,NE,38,0.0,3.0,67,0.00,,,-99.99,0.000000,,2013-03-29 06:23:00,
2013-03-29 02:32:00,32.0,22.0,-100.00,NE,38,0.0,3.0,67,0.00,,,-99.99,0.000000,,2013-03-29 06:32:00,
2013-03-29 02:42:00,32.0,22.0,-100.00,NE,38,0.0,3.0,67,0.00,,,-99.99,0.000000,,2013-03-29 06:42:00,
2013-03-29 02:52:00,32.0,22.0,-100.00,NE,51,0.0,5.0,67,0.00,,,-99.99,0.000000,,2013-03-29 06:52:00,
2013-03-29 03:12:00,32.0,22.0,-100.00,NE,51,0.0,5.0,67,0.00,,,-99.99,0.000000,,2013-03-29 07:12:00,
2013-03-29 03:22:00,32.0,22.0,-100.00,NE,51,0.0,5.0,67,0.00,,,-99.99,0.000000,,2013-03-29 07:22:00,
2013-03-29 03:32:00,32.0,22.0,-100.00,NE,51,0.0,5.0,67,0.00,,,-99.99,0.000000,,2013-03-29 07:32:00,
2013-03-29 03:42:00,32.0,22.0,-100.00,NE,51,0.0,5.0,67,0.00,,,-99.99,0.000000,,2013-03-29 07:42:00,
2013-03-29 03:52:00,35.0,24.0,-100.00,ENE,71,0.0,4.0,64,0.00,,,-99.99,0.000000,,2013-03-29 07:52:00,
2013-03-29 04:12:00,35.0,24.0,-100.00,ENE,71,0.0,4.0,64,0.00,,,-99.99,0.000000,,2013-03-29 08:12:00,
2013-03-29 04:22:00,35.0,24.0,-100.00,ENE,71,0.0,4.0,64,0.00,,,-99.99,0.000000,,2013-03-29 08:22:00,
2013-03-29 04:32:00,35.0,24.0,-100.00,ENE,71,0.0,4.0,64,0.00,,,-99.99,0.000000,,2013-03-29 08:32:00,
2013-03-29 04:42:00,35.0,24.0,-100.00,ENE,71,0.0,4.0,64,0.00,,,-99.99,0.000000,,2013-03-29 08:42:00,
2013-03-29 04:52:00,32.0,24.0,-100.00,ENE,62,1.0,5.0,72,0.00,,,-99.99,0.000000,,2013-03-29 08:52:00,
2013-03-29 05:13:00,32.0,24.0,-100.00,ENE,62,1.0,5.0,72,0.00,,,-99.99,0.000000,,2013-03-29 09:13:00,
2013-03-29 05:22:00,32.0,24.0,-100.00,ENE,62,1.0,5.0,72,0.00,,,-99.99,0.000000,,2013-03-29 09:22:00,
2013-03-29 05:33:00,32.0,24.0,-100.00,ENE,62,1.0,5.0,72,0.00,,,-99.99,0.000000,,2013-03-29 09:33:00,
2013-03-29 05:43:00,32.0,24.0,-100.00,ENE,62,1.0,5.0,72,0.00,,,-99.99,0.000000,,2013-03-29 09:43:00,
2013-03-29 05:52:00,34.0,25.0,-100.00,NNE,12,0.0,12.0,68,0.00,,,-99.99,0.000000,,2013-03-29 09:52:00,
2013-03-29 06:23:00,34.0,25.0,-100.00,NNE,12,0.0,12.0,68,0.00,,,-99.99,0.000000,,2013-03-29 10:23:00,
2013-03-29 06:33:00,34.0,25.0,-100.00,NNE,12,0.0,12.0,68,0.00,,,-99.99,0.000000,,2013-03-29 10:33:00,
2013-03-29 06:42:00,34.0,25.0,-100.00,NNE,12,0.0,12.0,68,0.00,,,-99.99,0.000000,,2013-03-29 10:42:00,
2013-03-29 06:52:00,34.0,23.0,-100.00,NE,41,0.0,4.0,64,0.00,,,-99.99,0.000000,,2013-03-29 10:52:00,
2013-03-29 07:12:00,34.0,23.0,-100.00,NE,41,0.0,4.0,64,0.00,,,-99.99,0.000000,,2013-03-29 11:12:00,
2013-03-29 07:23:00,34.0,23.0,-100.00,NE,41,0.0,4.0,64,0.00,,,-99.99,0.000000,,2013-03-29 11:23:00,
2013-03-29 07:33:00,34.0,23.0,-100.00,NE,41,0.0,4.0,64,0.00,,,-99.99,0.000000,,2013-03-29 11:33:00,
2013-03-29 07:42:00,34.0,23.0,-100.00,NE,41,0.0,4.0,64,0.00,,,-99.99,0.000000,,2013-03-29 11:42:00,
2013-03-29 07:52:00,35.0,26.0,-100.00,NNE,30,1.0,38.0,68,0.00,,,-99.99,20.000000,,2013-03-29 11:52:00,
2013-03-29 08:22:00,35.0,26.0,-100.00,NNE,30,1.0,38.0,68,0.00,,,-99.99,20.000000,,2013-03-29 12:22:00,
2013-03-29 08:32:00,35.0,26.0,-100.00,NNE,30,1.0,38.0,68,0.00,,,-99.99,20.000000,,2013-03-29 12:32:00,
2013-03-29 08:42:00,35.0,26.0,-100.00,NNE,30,1.0,38.0,68,0.00,,,-99.99,20.000000,,2013-03-29 12:42:00,
2013-03-29 08:52:00,45.0,27.0,-100.00,NE,56,2.0,6.0,49,0.00,,,-99.99,170.000000,,2013-03-29 12:52:00,
2013-03-29 09:23:00,45.0,27.0,-100.00,NE,56,2.0,6.0,49,0.00,,,-99.99,170.000000,,2013-03-29 13:23:00,
2013-03-29 09:33:00,45.0,27.0,-100.00,NE,56,2.0,6.0,49,0.00,,,-99.99,170.000000,,2013-03-29 13:33:00,
2013-03-29 09:43:00,45.0,27.0,-100.00,NE,56,2.0,6.0,49,0.00,,,-99.99,170.000000,,2013-03-29 13:43:00,
2013-03-29 09:52:00,49.0,27.0,-100.00,ENE,59,2.0,7.0,42,0.00,,,-99.99,272.000000,,2013-03-29 13:52:00,
2013-03-29 10:22:00,49.0,27.0,-100.00,ENE,59,2.0,7.0,42,0.00,,,-99.99,272.000000,,2013-03-29 14:22:00,
2013-03-29 10:33:00,49.0,27.0,-100.00,ENE,59,2.0,7.0,42,0.00,,,-99.99,272.000000,,2013-03-29 14:33:00,
2013-03-29 10:42:00,49.0,27.0,-100.00,ENE,59,2.0,7.0,42,0.00,,,-99.99,272.000000,,2013-03-29 14:42:00,
2013-03-29 10:52:00,56.0,25.0,-100.00,ENE,75,4.0,11.0,30,0.00,,,-99.99,564.000000,,2013-03-29 14:52:00,
2013-03-29 11:22:00,56.0,25.0,-100.00,ENE,75,4.0,11.0,30,0.00,,,-99.99,564.000000,,2013-03-29 15:22:00,
2013-03-29 11:33:00,56.0,25.0,-100.00,ENE,75,4.0,11.0,30,0.00,,,-99.99,564.000000,,2013-03-29 15:33:00,
2013-03-29 11:43:00,56.0,25.0,-100.00,ENE,75,4.0,11.0,30,0.00,,,-99.99,564.000000,,2013-03-29 15:43:00,
2013-03-29 11:52:00,58.0,25.0,-100.00,East,93,4.0,14.0,28,0.00,,,-99.99,789.000000,,2013-03-29 15:52:00,
2013-03-29 12:13:00,58.0,25.0,-100.00,East,93,4.0,14.0,28,0.00,,,-99.99,789.000000,,2013-03-29 16:13:00,
2013-03-29 12:23:00,58.0,25.0,-100.00,East,93,4.0,14.0,28,0.00,,,-99.99,789.000000,,2013-03-29 16:23:00,
2013-03-29 12:33:00,58.0,25.0,-100.00,East,93,4.0,14.0,28,0.00,,,-99.99,789.000000,,2013-03-29 16:33:00,
2013-03-29 12:43:00,58.0,25.0,-100.00,East,93,4.0,14.0,28,0.00,,,-99.99,789.000000,,2013-03-29 16:43:00,
2013-03-29 12:52:00,59.0,27.0,-100.00,East,89,4.0,11.0,29,0.00,,,-99.99,797.000000,,2013-03-29 16:52:00,
2013-03-29 13:23:00,59.0,27.0,-100.00,East,89,4.0,11.0,29,0.00,,,-99.99,797.000000,,2013-03-29 17:23:00,
2013-03-29 13:33:00,59.0,27.0,-100.00,East,89,4.0,11.0,29,0.00,,,-99.99,797.000000,,2013-03-29 17:33:00,
2013-03-29 13:43:00,59.0,27.0,-100.00,East,89,4.0,11.0,29,0.00,,,-99.99,797.000000,,2013-03-29 17:43:00,
2013-03-29 13:52:00,57.0,23.0,-100.00,ENE,73,3.0,12.0,27,0.00,,,0.00,767.000000,,2013-03-29 17:52:00,
2013-03-29 14:13:00,57.0,23.0,-100.00,ENE,73,3.0,12.0,27,0.00,,,0.00,767.000000,,2013-03-29 18:13:00,
2013-03-29 14:23:00,57.0,23.0,-100.00,ENE,73,3.0,12.0,27,0.00,,,0.00,767.000000,,2013-03-29 18:23:00,
2013-03-29 14:33:00,57.0,23.0,-100.00,ENE,73,3.0,12.0,27,0.00,,,0.00,767.000000,,2013-03-29 18:33:00,
2013-03-29 14:42:00,57.0,23.0,-100.00,ENE,73,3.0,12.0,27,0.00,,,0.00,767.000000,,2013-03-29 18:42:00,
2013-03-29 14:52:00,61.0,24.0,-100.00,East,91,5.0,17.0,24,0.00,,,0.00,932.000000,,2013-03-29 18:52:00,
2013-03-29 15:12:00,61.0,24.0,-100.00,East,91,5.0,17.0,24,0.00,,,0.00,932.000000,,2013-03-29 19:12:00,
2013-03-29 15:23:00,61.0,24.0,-100.00,East,91,5.0,17.0,24,0.00,,,0.00,932.000000,,2013-03-29 19:23:00,
2013-03-29 15:33:00,61.0,24.0,-100.00,East,91,5.0,17.0,24,0.00,,,0.00,932.000000,,2013-03-29 19:33:00,
2013-03-29 15:43:00,61.0,24.0,-100.00,East,91,5.0,17.0,24,0.00,,,0.00,932.000000,,2013-03-29 19:43:00,
2013-03-29 15:52:00,61.0,23.0,-100.00,NNE,18,3.0,13.0,23,0.00,,,0.00,789.000000,,2013-03-29 19:52:00,
2013-03-29 16:12:00,61.0,23.0,-100.00,NNE,18,3.0,13.0,23,0.00,,,0.00,789.000000,,2013-03-29 20:12:00,
2013-03-29 16:23:00,61.0,23.0,-100.00,NNE,18,3.0,13.0,23,0.00,,,0.00,789.000000,,2013-03-29 20:23:00,
2013-03-29 16:33:00,61.0,23.0,-100.00,NNE,18,3.0,13.0,23,0.00,,,0.00,789.000000,,2013-03-29 20:33:00,
2013-03-29 16:42:00,61.0,23.0,-100.00,NNE,18,3.0,13.0,23,0.00,,,0.00,789.000000,,2013-03-29 20:42:00,
2013-03-29 16:52:00,63.0,24.0,-100.00,NE,49,4.0,12.0,22,0.00,,,0.00,673.000000,,2013-03-29 20:52:00,
2013-03-29 17:22:00,63.0,24.0,-100.00,NE,49,4.0,12.0,22,0.00,,,0.00,673.000000,,2013-03-29 21:22:00,
2013-03-29 17:33:00,63.0,24.0,-100.00,NE,49,4.0,12.0,22,0.00,,,0.00,673.000000,,2013-03-29 21:33:00,
2013-03-29 17:43:00,63.0,24.0,-100.00,NE,49,4.0,12.0,22,0.00,,,0.00,673.000000,,2013-03-29 21:43:00,
2013-03-29 17:52:00,59.0,22.0,-100.00,ENE,58,2.0,11.0,24,0.00,,,0.00,364.000000,,2013-03-29 21:52:00,
2013-03-29 18:13:00,59.0,22.0,-100.00,ENE,58,2.0,11.0,24,0.00,,,0.00,364.000000,,2013-03-29 22:13:00,
2013-03-29 18:23:00,59.0,22.0,-100.00,ENE,58,2.0,11.0,24,0.00,,,0.00,364.000000,,2013-03-29 22:23:00,
2013-03-29 18:33:00,59.0,22.0,-100.00,ENE,58,2.0,11.0,24,0.00,,,0.00,364.000000,,2013-03-29 22:33:00,
2013-03-29 18:42:00,59.0,22.0,-100.00,ENE,58,2.0,11.0,24,0.00,,,0.00,364.000000,,2013-03-29 22:42:00,
2013-03-29 18:52:00,60.0,23.0,-100.00,NNE,32,1.0,7.0,24,0.00,,,0.00,265.000000,,2013-03-29 22:52:00,
2013-03-29 19:22:00,60.0,23.0,-100.00,NNE,32,1.0,7.0,24,0.00,,,0.00,265.000000,,2013-03-29 23:22:00,
2013-03-29 19:32:00,60.0,23.0,-100.00,NNE,32,1.0,7.0,24,0.00,,,0.00,265.000000,,2013-03-29 23:32:00,
2013-03-29 19:42:00,60.0,23.0,-100.00,NNE,32,1.0,7.0,24,0.00,,,0.00,265.000000,,2013-03-29 23:42:00,
2013-03-29 19:52:00,51.0,26.0,-100.00,WSW,245,0.0,3.0,38,0.00,,,0.00,19.000000,,2013-03-29 23:52:00,
2013-03-29 20:12:00,51.0,26.0,-100.00,WSW,245,0.0,3.0,38,0.00,,,0.00,19.000000,,2013-03-30 00:12:00,
2013-03-29 20:22:00,51.0,26.0,-100.00,WSW,245,0.0,3.0,38,0.00,,,0.00,19.000000,,2013-03-30 00:22:00,
2013-03-29 20:33:00,51.0,26.0,-100.00,WSW,245,0.0,3.0,38,0.00,,,0.00,19.000000,,2013-03-30 00:33:00,
2013-03-29 20:43:00,51.0,26.0,-100.00,WSW,245,0.0,3.0,38,0.00,,,0.00,19.000000,,2013-03-30 00:43:00,
2013-03-29 20:52:00,52.0,26.0,-100.00,NW,320,1.0,4.0,36,0.00,,,0.00,0.000000,,2013-03-30 00:52:00,
2013-03-29 21:13:00,52.0,26.0,-100.00,NW,320,1.0,4.0,36,0.00,,,0.00,0.000000,,2013-03-30 01:13:00,
2013-03-29 21:23:00,52.0,26.0,-100.00,NW,320,1.0,4.0,36,0.00,,,0.00,0.000000,,2013-03-30 01:23:00,
2013-03-29 21:33:00,52.0,26.0,-100.00,NW,320,1.0,4.0,36,0.00,,,0.00,0.000000,,2013-03-30 01:33:00,
2013-03-29 21:43:00,52.0,26.0,-100.00,NW,320,1.0,4.0,36,0.00,,,0.00,0.000000,,2013-03-30 01:43:00,
2013-03-29 21:52:00,51.0,26.0,-100.00,West,272,0.0,4.0,38,0.00,,,0.00,0.000000,,2013-03-30 01:52:00,
2013-03-29 22:22:00,51.0,26.0,-100.00,West,272,0.0,4.0,38,0.00,,,0.00,0.000000,,2013-03-30 02:22:00,
2013-03-29 22:33:00,51.0,26.0,-100.00,West,272,0.0,4.0,38,0.00,,,0.00,0.000000,,2013-03-30 02:33:00,
2013-03-29 22:43:00,51.0,26.0,-100.00,West,272,0.0,4.0,38,0.00,,,0.00,0.000000,,2013-03-30 02:43:00,
2013-03-29 22:52:00,49.0,26.0,-100.00,ENE,68,0.0,2.0,41,0.00,,,0.00,0.000000,,2013-03-30 02:52:00,
2013-03-29 23:12:00,49.0,26.0,-100.00,ENE,68,0.0,2.0,41,0.00,,,0.00,0.000000,,2013-03-30 03:12:00,
2013-03-29 23:22:00,49.0,26.0,-100.00,ENE,68,0.0,2.0,41,0.00,,,0.00,0.000000,,2013-03-30 03:22:00,
2013-03-29 23:33:00,49.0,26.0,-100.00,ENE,68,0.0,2.0,41,0.00,,,0.00,0.000000,,2013-03-30 03:33:00,
2013-03-29 23:43:00,49.0,26.0,-100.00,ENE,68,0.0,2.0,41,0.00,,,0.00,0.000000,,2013-03-30 03:43:00,
2013-03-29 23:52:00,45.0,27.0,-100.00,ENE,64,0.0,3.0,50,0.00,,,0.00,0.000000,,2013-03-30 03:52:00,